Time;durP1;ratioP1;P1;durP2;ratioP2;P2;SDS_P1;SDS_P2;PMS_P1;PMS_P2;Temp;Humidity;BMP_temperature;BMP_pressure;BME280_temperature;BME280_humidity;BME280_pressure;Samples;Min_cycle;Max_cycle;Signal;HPM_P1;HPM_P2
2023/07/08 00:01:14;;;;;;;16.80;10.07;;;;;;;22.67;36.43;96389.38;5026764;28;20791;-76
2023/07/08 00:03:40;;;;;;;14.17;8.17;;;;;;;22.70;37.00;96384.59;5026492;28;20201;-75
2023/07/08 00:06:11;;;;;;;11.13;8.40;;;;;;;22.59;36.59;96387.41;5026041;28;20422;-76
2023/07/08 00:08:37;;;;;;;14.50;8.10;;;;;;;22.62;36.68;96390.63;5026416;28;20465;-75
2023/07/08 00:11:09;;;;;;;10.60;8.67;;;;;;;22.48;36.98;96393.72;5026139;28;21161;-75
2023/07/08 00:13:35;;;;;;;10.30;7.70;;;;;;;22.38;37.06;96399.09;5026670;28;20230;-74
2023/07/08 00:16:00;;;;;;;13.03;8.80;;;;;;;22.35;37.37;96398.53;5026351;28;21238;-76
2023/07/08 00:18:25;;;;;;;11.90;8.10;;;;;;;22.34;37.54;96388.81;5026586;28;20175;-75
2023/07/08 00:20:51;;;;;;;19.43;8.80;;;;;;;22.33;38.09;96379.13;5025949;28;20325;-75
2023/07/08 00:23:20;;;;;;;23.13;8.80;;;;;;;22.29;38.06;96373.19;5026580;28;20186;-73
2023/07/08 00:25:45;;;;;;;13.20;8.93;;;;;;;22.16;38.53;96376.13;5026813;28;20175;-75
2023/07/08 00:28:15;;;;;;;16.33;8.93;;;;;;;22.28;38.40;96368.00;5026301;28;21018;-76
2023/07/08 00:30:41;;;;;;;12.80;8.63;;;;;;;22.20;38.49;96374.00;5025819;28;20677;-76
2023/07/08 00:33:07;;;;;;;10.13;7.50;;;;;;;22.32;38.43;96362.25;5026346;28;20436;-75
2023/07/08 00:35:37;;;;;;;8.57;7.30;;;;;;;22.32;38.51;96364.91;5026419;28;20175;-75
2023/07/08 00:38:26;;;;;;;13.07;8.10;;;;;;;22.26;38.95;96367.28;5025810;28;20509;-75
2023/07/08 00:41:12;;;;;;;19.70;9.77;;;;;;;22.24;39.00;96369.25;5025070;28;20535;-75
2023/07/08 00:43:57;;;;;;;13.37;8.07;;;;;;;22.15;39.49;96374.41;5024177;28;20473;-75
2023/07/08 00:46:31;;;;;;;10.50;7.90;;;;;;;22.06;39.56;96369.91;5025700;28;20448;-75
2023/07/08 00:49:40;;;;;;;14.53;8.40;;;;;;;22.06;39.85;96364.56;5025921;28;20472;-75
2023/07/08 00:52:26;;;;;;;15.10;9.20;;;;;;;22.11;39.93;96369.47;5022768;28;20442;-76
2023/07/08 00:54:57;;;;;;;8.57;7.50;;;;;;;22.10;39.76;96363.31;5025621;28;20480;-75
2023/07/08 00:57:29;;;;;;;15.77;9.17;;;;;;;22.07;39.64;96368.09;5025534;28;20461;-75
2023/07/08 01:00:04;;;;;;;15.63;8.50;;;;;;;21.96;39.89;96369.06;5025218;28;20476;-75
2023/07/08 01:02:34;;;;;;;9.10;8.13;;;;;;;21.82;39.89;96364.13;5025661;28;20414;-75
2023/07/08 01:05:07;;;;;;;11.37;8.80;;;;;;;21.78;39.89;96369.75;5024479;28;20422;-74
2023/07/08 01:07:34;;;;;;;11.70;9.37;;;;;;;21.96;39.42;96367.22;5025286;28;20557;-75
2023/07/08 01:10:12;;;;;;;9.30;7.50;;;;;;;21.84;39.69;96364.81;5025197;28;20421;-75
2023/07/08 01:12:42;;;;;;;13.37;8.97;;;;;;;21.86;39.52;96374.38;5025357;28;20414;-74
2023/07/08 01:15:09;;;;;;;12.67;8.23;;;;;;;21.75;39.62;96379.84;5025353;28;20426;-75
2023/07/08 01:17:35;;;;;;;10.23;7.87;;;;;;;21.75;39.99;96383.34;5025431;28;20504;-75
2023/07/08 01:20:06;;;;;;;11.00;9.20;;;;;;;21.95;39.62;96380.75;5025121;28;21179;-75
2023/07/08 01:22:35;;;;;;;11.30;8.57;;;;;;;21.86;39.77;96384.25;5025486;28;20434;-75
2023/07/08 01:25:03;;;;;;;11.00;8.00;;;;;;;22.00;39.29;96375.81;5024954;28;20450;-75
2023/07/08 01:27:34;;;;;;;12.30;8.70;;;;;;;21.82;40.12;96372.97;5025445;28;20540;-75
2023/07/08 01:30:01;;;;;;;10.00;8.93;;;;;;;21.63;40.73;96373.75;5025163;28;20418;-74
2023/07/08 01:32:26;;;;;;;16.20;8.10;;;;;;;21.92;39.58;96370.31;5025132;28;20449;-75
2023/07/08 01:35:02;;;;;;;12.80;8.53;;;;;;;21.12;41.77;96372.00;5024978;28;20418;-75
2023/07/08 01:37:38;;;;;;;17.70;8.40;;;;;;;21.45;41.51;96370.03;5025111;28;20209;-75
2023/07/08 01:40:18;;;;;;;10.40;7.43;;;;;;;21.80;40.66;96366.91;5015644;28;20430;-74
2023/07/08 01:42:44;;;;;;;13.50;8.43;;;;;;;21.69;40.52;96370.56;5025077;28;20450;-74
2023/07/08 01:45:12;;;;;;;11.07;8.07;;;;;;;21.61;40.69;96372.22;5025084;28;20797;-76
2023/07/08 01:47:39;;;;;;;12.47;8.40;;;;;;;21.53;41.04;96373.75;5030369;28;20214;-75
2023/07/08 01:50:05;;;;;;;10.90;8.33;;;;;;;21.57;40.83;96368.97;5025071;28;20422;-74
2023/07/08 01:52:31;;;;;;;24.17;9.80;;;;;;;21.49;40.59;96374.16;5024954;28;20534;-75
2023/07/08 01:54:56;;;;;;;13.63;8.63;;;;;;;21.52;41.21;96376.53;5025022;28;20510;-76
2023/07/08 01:57:21;;;;;;;15.47;7.93;;;;;;;21.59;41.08;96379.50;5024532;28;20262;-75
2023/07/08 01:59:47;;;;;;;9.93;7.40;;;;;;;21.52;41.24;96376.53;5024471;28;20262;-75
2023/07/08 02:02:13;;;;;;;11.33;7.80;;;;;;;21.54;41.08;96367.44;5024599;28;20195;-75
2023/07/08 02:04:38;;;;;;;9.57;7.67;;;;;;;21.42;41.31;96360.50;5026346;28;20659;-75
2023/07/08 02:07:04;;;;;;;10.17;8.27;;;;;;;21.43;41.44;96362.19;5008311;28;20198;-75
2023/07/08 02:09:30;;;;;;;16.00;9.33;;;;;;;21.63;40.98;96352.41;5026725;28;20182;-74
2023/07/08 02:11:56;;;;;;;10.50;7.83;;;;;;;21.61;40.96;96356.19;5027418;28;20196;-74
2023/07/08 02:14:22;;;;;;;19.60;9.93;;;;;;;21.66;41.15;96354.81;5027092;28;20550;-74
2023/07/08 02:16:47;;;;;;;17.33;9.03;;;;;;;21.97;41.92;96366.25;5031025;28;20259;-74
2023/07/08 02:19:13;;;;;;;31.80;10.37;;;;;;;21.75;43.41;96372.66;4998601;28;20502;-75
2023/07/08 02:21:39;;;;;;;13.00;8.40;;;;;;;21.84;42.69;96370.16;5022827;28;20195;-75
2023/07/08 02:24:05;;;;;;;12.20;8.30;;;;;;;21.77;43.41;96370.69;5029721;28;20237;-74
2023/07/08 02:26:32;;;;;;;14.90;8.67;;;;;;;21.78;42.89;96366.22;5029567;28;20175;-74
2023/07/08 02:28:58;;;;;;;14.87;8.50;;;;;;;21.69;42.93;96383.06;5029116;28;20504;-76
2023/07/08 02:31:24;;;;;;;12.70;7.73;;;;;;;21.79;43.29;96389.28;5028458;28;20469;-75
2023/07/08 02:33:53;;;;;;;19.53;9.30;;;;;;;21.69;43.78;96397.28;5028669;28;20513;-75
2023/07/08 02:36:19;;;;;;;12.57;7.53;;;;;;;21.44;44.94;96392.41;5030187;28;20430;-76
2023/07/08 02:38:48;;;;;;;11.90;8.60;;;;;;;20.57;46.51;96387.38;5031007;28;20967;-75
2023/07/08 02:41:13;;;;;;;12.00;8.53;;;;;;;19.90;48.18;96388.47;5031219;28;20213;-75
2023/07/08 02:43:39;;;;;;;12.20;9.27;;;;;;;19.58;48.84;96381.22;5030697;28;20817;-74
2023/07/08 02:46:05;;;;;;;13.20;8.07;;;;;;;19.55;50.01;96386.81;5031072;28;20180;-74
2023/07/08 02:48:31;;;;;;;10.20;8.50;;;;;;;19.61;50.58;96387.16;5033639;28;20249;-73
2023/07/08 02:51:00;;;;;;;11.00;8.60;;;;;;;19.90;48.55;96394.66;5030721;28;20446;-75
2023/07/08 02:53:25;;;;;;;12.10;8.40;;;;;;;20.49;47.80;96414.66;5031726;28;20958;-75
2023/07/08 02:55:55;;;;;;;27.73;9.07;;;;;;;20.99;47.26;96428.25;5029924;28;20426;-75
2023/07/08 02:58:20;;;;;;;22.13;8.17;;;;;;;21.29;45.92;96446.13;5030381;28;20563;-75
2023/07/08 03:00:51;;;;;;;11.60;8.67;;;;;;;21.28;46.28;96502.28;5010881;28;20438;-77
2023/07/08 03:03:17;;;;;;;12.47;9.27;;;;;;;20.69;48.78;96488.53;5028097;28;20181;-75
2023/07/08 03:05:42;;;;;;;12.83;8.93;;;;;;;20.56;47.89;96452.38;5027613;28;20426;-74
2023/07/08 03:08:07;;;;;;;11.73;7.70;;;;;;;20.30;48.89;96440.19;5029861;28;20310;-74
2023/07/08 03:10:33;;;;;;;13.40;8.80;;;;;;;21.18;46.53;96456.03;5028453;28;20232;-75
2023/07/08 03:13:02;;;;;;;23.97;9.27;;;;;;;21.05;47.31;96466.91;5028186;28;20993;-74
2023/07/08 03:15:27;;;;;;;17.47;8.20;;;;;;;21.10;47.76;96454.00;5028601;28;20175;-75
2023/07/08 03:17:57;;;;;;;13.77;8.60;;;;;;;21.38;46.63;96441.81;5028061;28;20426;-76
2023/07/08 03:20:22;;;;;;;12.60;8.50;;;;;;;21.44;46.38;96433.28;5027639;28;20219;-75
2023/07/08 03:22:48;;;;;;;10.30;8.20;;;;;;;20.61;49.20;96436.81;5027993;28;20446;-74
2023/07/08 03:25:14;;;;;;;28.00;10.50;;;;;;;20.98;48.32;96452.41;5028097;28;20501;-75
2023/07/08 03:27:39;;;;;;;31.07;10.50;;;;;;;21.31;47.38;96440.66;5026890;28;20230;-75
2023/07/08 03:30:05;;;;;;;12.67;7.90;;;;;;;21.04;49.12;96427.84;5026788;28;20175;-74
2023/07/08 03:32:31;;;;;;;14.50;9.30;;;;;;;21.46;47.76;96427.81;5009126;28;20183;-75
2023/07/08 03:34:56;;;;;;;10.00;7.97;;;;;;;21.14;50.16;96421.59;5027066;28;20453;-75
2023/07/08 03:37:21;;;;;;;42.17;11.20;;;;;;;21.49;48.67;96414.19;5027230;28;20172;-75
2023/07/08 03:39:47;;;;;;;17.27;9.33;;;;;;;21.67;48.22;96406.41;5026626;28;20168;-73
2023/07/08 03:42:12;;;;;;;9.23;8.00;;;;;;;21.61;48.60;96415.78;5026664;28;20257;-74
2023/07/08 03:44:37;;;;;;;18.37;9.47;;;;;;;21.33;52.41;96415.53;5026964;28;20243;-75
2023/07/08 03:47:03;;;;;;;13.83;8.50;;;;;;;21.10;51.67;96406.81;5030108;28;20186;-74
2023/07/08 03:49:28;;;;;;;9.90;8.03;;;;;;;21.25;52.46;96401.97;5031199;28;20205;-75
2023/07/08 03:51:54;;;;;;;13.77;8.03;;;;;;;21.24;51.54;96405.63;5026649;28;20188;-75
2023/07/08 03:54:22;;;;;;;13.20;9.83;;;;;;;20.77;53.44;96417.72;5026831;28;20175;-75
2023/07/08 03:56:47;;;;;;;16.87;9.47;;;;;;;20.88;53.15;96421.16;5027213;28;20184;-75
2023/07/08 03:59:13;;;;;;;21.43;10.10;;;;;;;20.96;52.82;96422.34;5026660;28;20453;-75
2023/07/08 04:01:40;;;;;;;25.47;9.03;;;;;;;20.82;53.64;96427.00;5026427;28;20278;-74
2023/07/08 04:04:08;;;;;;;30.70;12.00;;;;;;;20.88;54.24;96431.84;5026663;28;20341;-74
2023/07/08 04:06:34;;;;;;;17.33;9.40;;;;;;;21.03;53.07;96440.34;5025278;28;20425;-75
2023/07/08 04:08:59;;;;;;;34.43;11.93;;;;;;;20.77;56.07;96442.56;5025443;28;20511;-73
2023/07/08 04:11:26;;;;;;;35.07;11.23;;;;;;;20.91;55.86;96449.41;5036788;28;20198;-74
2023/07/08 04:13:52;;;;;;;37.00;13.03;;;;;;;20.88;55.25;96441.63;5037627;28;20174;-74
2023/07/08 04:16:30;;;;;;;17.70;9.20;;;;;;;20.92;54.86;96435.91;5008580;28;20423;-75
2023/07/08 04:18:56;;;;;;;24.63;9.63;;;;;;;20.84;54.92;96424.22;5006566;28;20194;-74
2023/07/08 04:21:25;;;;;;;21.90;10.30;;;;;;;20.86;55.30;96406.28;5008494;28;20446;-74
2023/07/08 04:23:51;;;;;;;21.17;10.67;;;;;;;20.86;55.16;96403.59;5009301;28;20414;-73
2023/07/08 04:26:18;;;;;;;21.40;10.50;;;;;;;21.08;54.63;96399.94;5007008;28;20764;-74
2023/07/08 04:28:44;;;;;;;18.67;12.03;;;;;;;21.13;55.32;96400.38;5026003;28;20500;-73
2023/07/08 04:31:09;;;;;;;37.57;11.80;;;;;;;20.87;57.87;96398.13;5026789;28;20430;-75
2023/07/08 04:33:35;;;;;;;30.33;13.50;;;;;;;21.06;56.69;96394.72;5026375;28;20531;-74
2023/07/08 04:36:00;;;;;;;44.10;13.87;;;;;;;20.86;58.17;96404.44;5026220;28;20176;-73
2023/07/08 04:38:27;;;;;;;17.10;9.70;;;;;;;20.67;59.53;96414.97;5025756;28;20217;-74
2023/07/08 04:40:54;;;;;;;16.10;9.00;;;;;;;20.76;59.31;96429.34;5025725;28;20253;-73
2023/07/08 04:43:21;;;;;;;14.30;10.47;;;;;;;20.60;59.50;96429.78;5026250;28;20438;-75
2023/07/08 04:45:52;;;;;;;16.37;10.00;;;;;;;20.55;59.66;96422.16;5026196;28;20521;-75
2023/07/08 04:48:21;;;;;;;24.53;11.40;;;;;;;20.49;59.65;96420.00;5039196;28;20809;-74
2023/07/08 04:50:49;;;;;;;13.50;9.47;;;;;;;20.62;58.42;96414.50;5045429;28;20425;-75
2023/07/08 04:53:15;;;;;;;24.00;11.53;;;;;;;20.87;57.89;96395.44;5046447;28;20409;-74
2023/07/08 04:55:47;;;;;;;14.27;11.43;;;;;;;20.51;59.19;96391.41;5046510;28;20409;-72
2023/07/08 04:58:13;;;;;;;12.50;9.40;;;;;;;20.20;60.63;96388.63;5045969;28;20167;-74
2023/07/08 05:00:38;;;;;;;17.37;11.70;;;;;;;19.47;63.46;96379.44;5045294;28;20506;-73
2023/07/08 05:03:04;;;;;;;16.70;9.93;;;;;;;19.21;64.46;96374.38;5043214;28;20175;-73
2023/07/08 05:05:29;;;;;;;23.63;11.07;;;;;;;20.38;59.66;96353.41;5025608;28;20174;-75
2023/07/08 05:07:55;;;;;;;21.33;11.50;;;;;;;21.09;56.98;96348.25;5025456;28;20265;-74
2023/07/08 05:10:21;;;;;;;16.27;10.50;;;;;;;21.33;55.95;96356.78;5025202;28;20268;-73
2023/07/08 05:12:47;;;;;;;18.03;9.27;;;;;;;20.81;57.12;96398.66;5025644;28;20160;-74
2023/07/08 05:15:13;;;;;;;10.83;7.67;;;;;;;20.08;58.28;96394.97;5025239;28;20179;-75
2023/07/08 05:17:39;;;;;;;11.23;8.83;;;;;;;19.99;59.26;96401.06;5025048;28;20418;-74
2023/07/08 05:20:07;;;;;;;19.80;8.40;;;;;;;20.86;56.63;96428.44;5025130;28;20491;-72
2023/07/08 05:22:32;;;;;;;15.23;9.60;;;;;;;20.63;56.15;96426.88;5025462;28;20497;-74
2023/07/08 05:24:58;;;;;;;38.63;11.23;;;;;;;20.49;56.97;96396.84;5020823;28;20510;-74
2023/07/08 05:27:24;;;;;;;43.60;11.27;;;;;;;21.00;55.75;96437.09;5005988;28;20168;-74
2023/07/08 05:29:50;;;;;;;16.07;8.50;;;;;;;20.73;56.49;96446.44;5005786;28;20678;-74
2023/07/08 05:32:16;;;;;;;25.90;9.93;;;;;;;20.44;56.94;96443.53;5005863;28;20279;-74
2023/07/08 05:34:41;;;;;;;44.47;11.70;;;;;;;20.47;57.11;96454.78;5005909;28;20425;-74
2023/07/08 05:37:07;;;;;;;22.90;10.33;;;;;;;20.75;56.05;96467.66;5009944;28;20178;-75
2023/07/08 05:39:32;;;;;;;17.13;9.30;;;;;;;20.71;55.89;96475.06;5024888;28;20472;-73
2023/07/08 05:41:58;;;;;;;12.83;8.67;;;;;;;20.51;56.31;96456.22;5025188;28;20631;-74
2023/07/08 05:44:23;;;;;;;20.07;10.23;;;;;;;20.66;54.98;96474.59;5025217;28;20261;-75
2023/07/08 05:46:50;;;;;;;17.73;9.10;;;;;;;20.77;54.31;96471.06;5026110;28;20191;-76
2023/07/08 05:49:16;;;;;;;21.10;9.00;;;;;;;21.09;53.13;96465.66;5044953;28;20285;-74
2023/07/08 05:51:43;;;;;;;12.33;8.80;;;;;;;20.63;53.58;96470.38;5048080;28;20588;-74
2023/07/08 05:54:09;;;;;;;26.13;8.83;;;;;;;21.03;51.63;96466.19;5049410;28;20470;-76
2023/07/08 05:56:34;;;;;;;15.40;8.47;;;;;;;21.12;51.23;96468.06;5048961;28;20425;-74
2023/07/08 05:59:00;;;;;;;15.70;10.20;;;;;;;20.99;51.07;96470.09;5048515;28;20163;-74
2023/07/08 06:01:25;;;;;;;36.63;11.80;;;;;;;21.36;50.72;96462.44;5048906;28;20190;-75
2023/07/08 06:03:51;;;;;;;36.50;10.67;;;;;;;21.63;50.58;96451.22;5049081;28;20597;-73
2023/07/08 06:06:16;;;;;;;23.20;8.43;;;;;;;21.71;50.56;96438.03;5048554;28;20567;-74
2023/07/08 06:08:42;;;;;;;12.83;7.90;;;;;;;21.58;51.34;96448.09;5048583;28;20201;-74
2023/07/08 06:11:07;;;;;;;31.73;12.33;;;;;;;21.66;51.39;96452.75;5048709;28;20499;-74
2023/07/08 06:13:33;;;;;;;23.50;10.87;;;;;;;21.76;51.09;96451.84;5045811;28;20175;-74
2023/07/08 06:15:58;;;;;;;47.07;11.40;;;;;;;21.73;52.04;96457.47;5028521;28;20171;-75
2023/07/08 06:18:23;;;;;;;24.00;9.80;;;;;;;21.83;51.30;96464.63;5028846;28;20214;-72
2023/07/08 06:20:54;;;;;;;57.37;13.60;;;;;;;21.53;52.62;96458.34;5028203;28;20275;-75
2023/07/08 06:23:20;;;;;;;49.67;10.53;;;;;;;21.53;53.93;96453.84;5028734;28;20536;-75
2023/07/08 06:25:45;;;;;;;27.17;10.40;;;;;;;21.56;53.18;96450.06;5028656;28;20435;-76
2023/07/08 06:28:10;;;;;;;144.27;19.83;;;;;;;21.56;52.44;96458.06;5029000;28;20666;-73
2023/07/08 06:30:37;;;;;;;22.20;9.60;;;;;;;21.65;50.95;96457.25;5028599;28;20199;-75
2023/07/08 06:33:03;;;;;;;22.47;9.90;;;;;;;21.59;49.73;96463.16;5028779;28;20182;-73
2023/07/08 06:35:28;;;;;;;64.33;15.07;;;;;;;21.73;50.04;96465.47;5028758;28;20419;-73
2023/07/08 06:37:53;;;;;;;30.23;9.07;;;;;;;21.80;50.35;96475.59;5028619;28;20235;-72
2023/07/08 06:40:19;;;;;;;29.73;11.60;;;;;;;21.92;50.03;96478.06;5027969;28;20629;-74
2023/07/08 06:42:45;;;;;;;22.00;9.63;;;;;;;21.93;50.76;96482.41;5028461;28;20254;-76
2023/07/08 06:45:11;;;;;;;23.97;8.60;;;;;;;21.97;51.43;96474.97;5028255;28;20167;-75
2023/07/08 06:47:36;;;;;;;15.53;9.10;;;;;;;21.99;51.79;96478.31;5036218;28;20210;-76
2023/07/08 06:50:02;;;;;;;27.23;9.40;;;;;;;21.88;51.61;96481.13;5047421;28;20182;-74
2023/07/08 06:52:33;;;;;;;21.60;10.67;;;;;;;21.71;52.11;96477.28;5048296;28;20852;-75
2023/07/08 06:54:59;;;;;;;34.13;11.37;;;;;;;21.59;51.79;96486.31;5047978;28;20189;-75
2023/07/08 06:57:24;;;;;;;68.50;15.43;;;;;;;21.65;51.87;96483.97;5030604;28;20425;-73
2023/07/08 06:59:50;;;;;;;35.07;12.60;;;;;;;21.91;51.33;96491.53;5047684;28;20175;-73
2023/07/08 07:02:16;;;;;;;39.97;11.27;;;;;;;21.84;51.07;96498.41;5047566;28;20225;-74
2023/07/08 07:04:42;;;;;;;32.43;11.73;;;;;;;21.95;51.06;96498.31;5048021;28;20175;-74
2023/07/08 07:07:07;;;;;;;26.63;11.00;;;;;;;21.83;50.92;96502.91;5048301;28;20413;-75
2023/07/08 07:09:33;;;;;;;22.87;10.10;;;;;;;21.70;51.54;96508.44;5048523;28;20256;-73
2023/07/08 07:11:58;;;;;;;50.27;12.63;;;;;;;21.94;51.13;96504.63;5048407;28;20226;-74
2023/07/08 07:14:24;;;;;;;61.43;15.43;;;;;;;22.02;50.91;96518.16;5037949;28;20179;-74
2023/07/08 07:16:49;;;;;;;44.67;11.10;;;;;;;22.17;50.48;96506.09;5028092;28;20588;-73
2023/07/08 07:19:14;;;;;;;30.83;10.63;;;;;;;21.91;50.60;96516.41;5027905;28;20183;-73
2023/07/08 07:21:40;;;;;;;58.47;13.43;;;;;;;22.04;50.31;96510.84;5027981;28;20195;-74
2023/07/08 07:24:06;;;;;;;59.13;12.40;;;;;;;22.26;50.29;96509.81;5028002;28;20962;-72
2023/07/08 07:26:32;;;;;;;18.40;10.33;;;;;;;21.81;51.24;96510.19;5027624;28;20171;-75
2023/07/08 07:28:58;;;;;;;20.37;10.33;;;;;;;22.04;51.05;96526.91;5027012;28;20458;-74
2023/07/08 07:31:23;;;;;;;20.47;9.97;;;;;;;22.12;50.46;96523.53;5027244;28;20211;-74
2023/07/08 07:33:48;;;;;;;62.80;15.27;;;;;;;22.16;50.52;96525.81;5027528;28;20230;-75
2023/07/08 07:36:14;;;;;;;25.23;11.10;;;;;;;22.35;50.15;96530.38;5027565;28;20171;-74
2023/07/08 07:38:39;;;;;;;16.33;9.57;;;;;;;22.29;50.66;96516.72;5027347;28;20171;-75
2023/07/08 07:41:06;;;;;;;23.77;12.50;;;;;;;22.25;50.89;96518.81;5027169;28;20282;-75
2023/07/08 07:43:33;;;;;;;25.97;9.73;;;;;;;22.33;50.74;96524.31;5027370;28;20175;-74
2023/07/08 07:45:59;;;;;;;19.40;10.20;;;;;;;22.36;50.08;96528.56;5027124;28;20783;-74
2023/07/08 07:48:25;;;;;;;23.43;10.27;;;;;;;22.28;50.29;96523.91;5026945;28;20539;-74
2023/07/08 07:50:51;;;;;;;11.43;8.70;;;;;;;22.10;50.72;96526.34;5026692;28;20230;-75
2023/07/08 07:53:17;;;;;;;11.80;8.80;;;;;;;22.05;50.93;96533.91;5027132;28;20262;-74
2023/07/08 07:55:42;;;;;;;16.00;9.90;;;;;;;22.02;51.07;96530.69;5027073;28;20566;-73
2023/07/08 07:58:07;;;;;;;13.50;9.90;;;;;;;22.02;51.35;96520.00;5027011;28;20202;-75
2023/07/08 08:00:33;;;;;;;11.83;8.20;;;;;;;21.71;52.17;96522.69;5025742;28;20290;-75
2023/07/08 08:02:59;;;;;;;32.13;10.70;;;;;;;22.31;50.76;96528.13;5022414;28;20215;-76
2023/07/08 08:05:24;;;;;;;10.80;7.70;;;;;;;22.31;50.56;96528.97;5033725;28;20197;-74
2023/07/08 08:07:50;;;;;;;41.13;10.53;;;;;;;22.49;49.67;96534.50;5026823;28;20199;-74
2023/07/08 08:10:15;;;;;;;25.83;10.20;;;;;;;22.68;48.68;96535.50;5009331;28;20188;-75
2023/07/08 08:12:41;;;;;;;17.50;9.20;;;;;;;22.75;48.28;96532.16;5011072;28;20165;-75
2023/07/08 08:15:07;;;;;;;11.07;8.70;;;;;;;22.44;49.06;96526.06;5007293;28;20176;-75
2023/07/08 08:17:33;;;;;;;16.43;9.07;;;;;;;22.37;49.38;96522.22;5007148;28;20176;-73
2023/07/08 08:19:58;;;;;;;16.47;8.30;;;;;;;22.74;48.95;96521.56;5019126;28;20540;-75
2023/07/08 08:22:23;;;;;;;10.90;8.30;;;;;;;22.69;48.41;96531.84;5026777;28;20203;-76
2023/07/08 08:24:49;;;;;;;10.37;8.07;;;;;;;22.40;49.74;96529.97;5026837;28;20171;-75
2023/07/08 08:27:15;;;;;;;12.80;8.60;;;;;;;22.21;49.72;96525.44;5026294;28;20187;-73
2023/07/08 08:29:40;;;;;;;12.70;8.83;;;;;;;22.06;50.29;96530.25;5026157;28;21002;-74
2023/07/08 08:32:06;;;;;;;15.97;8.57;;;;;;;22.17;50.30;96529.31;5026001;28;20203;-74
2023/07/08 08:34:32;;;;;;;13.23;7.90;;;;;;;22.09;50.19;96523.81;5026039;28;20185;-76
2023/07/08 08:36:57;;;;;;;15.10;8.40;;;;;;;22.22;49.80;96526.25;5026798;28;20195;-73
2023/07/08 08:39:24;;;;;;;12.57;8.83;;;;;;;22.26;49.94;96533.03;5026015;28;20266;-74
2023/07/08 08:41:53;;;;;;;19.50;10.30;;;;;;;22.22;50.09;96529.78;5025208;28;20199;-74
2023/07/08 08:44:28;;;;;;;14.93;9.03;;;;;;;22.31;50.13;96528.13;5025787;28;20426;-74
2023/07/08 08:47:02;;;;;;;20.43;9.50;;;;;;;22.65;49.63;96527.75;5026560;28;20517;-76
2023/07/08 08:49:32;;;;;;;12.00;8.33;;;;;;;22.85;48.94;96531.31;5025667;28;20932;-74
2023/07/08 08:51:58;;;;;;;11.90;7.63;;;;;;;22.80;48.88;96534.41;5026128;28;20475;-73
2023/07/08 08:54:24;;;;;;;16.77;8.47;;;;;;;22.95;48.24;96530.31;5026220;28;20430;-74
2023/07/08 08:57:05;;;;;;;10.03;8.30;;;;;;;22.86;48.59;96525.78;5019726;28;20433;-74
2023/07/08 08:59:57;;;;;;;10.50;7.83;;;;;;;23.32;47.80;96526.94;5025567;28;20171;-75
2023/07/08 09:02:54;;;;;;;12.13;9.00;;;;;;;23.63;46.20;96530.25;5021086;28;20458;-77
2023/07/08 09:05:20;;;;;;;10.07;7.67;;;;;;;23.90;45.63;96527.81;5023064;28;20448;-74
2023/07/08 09:08:10;;;;;;;13.60;8.10;;;;;;;24.15;44.97;96537.84;5026536;28;20457;-75
2023/07/08 09:10:51;;;;;;;13.27;8.60;;;;;;;24.40;44.61;96549.75;5025286;28;20203;-72
2023/07/08 09:13:37;;;;;;;16.90;8.30;;;;;;;24.42;43.59;96542.34;5024921;28;20462;-75
2023/07/08 09:16:25;;;;;;;17.50;8.63;;;;;;;24.58;43.93;96543.59;5036956;28;21010;-77
2023/07/08 09:19:09;;;;;;;16.60;7.87;;;;;;;24.50;44.15;96545.19;5037899;28;20437;-77
2023/07/08 09:21:51;;;;;;;20.70;8.77;;;;;;;24.26;44.83;96545.72;5027608;28;20445;-74
2023/07/08 09:24:29;;;;;;;23.33;8.53;;;;;;;24.14;45.91;96557.59;5023972;28;20434;-73
2023/07/08 09:26:58;;;;;;;19.90;8.37;;;;;;;24.06;46.80;96558.34;5010060;28;21143;-74
2023/07/08 09:29:24;;;;;;;21.87;9.63;;;;;;;24.13;46.50;96560.44;5029158;28;20461;-75
2023/07/08 09:31:49;;;;;;;15.17;8.30;;;;;;;24.05;47.05;96563.88;5028929;28;20461;-74
2023/07/08 09:34:20;;;;;;;34.40;10.60;;;;;;;23.96;47.39;96564.75;5030276;28;20562;-74
2023/07/08 09:36:47;;;;;;;10.33;7.60;;;;;;;23.90;47.06;96559.97;5028782;28;20931;-74
2023/07/08 09:39:15;;;;;;;11.23;8.27;;;;;;;23.81;47.05;96575.06;5028475;28;20510;-74
2023/07/08 09:41:43;;;;;;;10.00;7.80;;;;;;;23.82;46.51;96577.63;5028255;28;21111;-75
2023/07/08 09:44:33;;;;;;;8.00;6.70;;;;;;;23.66;46.06;96574.66;5027770;28;20788;-76
2023/07/08 09:46:59;;;;;;;10.83;7.90;;;;;;;23.57;46.66;96586.25;5029962;28;20842;-74
2023/07/08 09:49:30;;;;;;;9.33;7.07;;;;;;;23.62;46.79;96592.00;5030432;28;20453;-75
2023/07/08 09:51:55;;;;;;;17.53;9.23;;;;;;;23.65;47.05;96589.91;5028242;28;20584;-74
2023/07/08 09:54:24;;;;;;;9.77;7.07;;;;;;;23.57;47.25;96600.47;5028518;28;20433;-75
2023/07/08 09:57:04;;;;;;;16.90;8.60;;;;;;;23.65;47.45;96597.09;5031190;28;20406;-74
2023/07/08 09:59:36;;;;;;;14.20;8.20;;;;;;;23.60;47.57;96607.41;5027619;28;20428;-74
2023/07/08 10:02:28;;;;;;;10.73;7.43;;;;;;;23.66;46.85;96594.25;5023817;28;21114;-76
2023/07/08 10:04:56;;;;;;;15.93;7.90;;;;;;;23.78;46.70;96596.81;5027753;28;20418;-74
2023/07/08 10:07:22;;;;;;;13.83;7.37;;;;;;;23.88;46.03;96603.84;5027543;28;20414;-75
2023/07/08 10:09:53;;;;;;;23.47;7.53;;;;;;;24.02;46.05;96599.00;5027841;28;20421;-76
2023/07/08 10:12:21;;;;;;;21.67;8.50;;;;;;;24.20;45.48;96599.09;5028218;28;20200;-75
2023/07/08 10:14:56;;;;;;;8.23;7.30;;;;;;;24.64;44.18;96594.81;5028104;28;20410;-74
2023/07/08 10:17:21;;;;;;;11.23;7.70;;;;;;;25.19;43.32;96585.84;5028153;28;20405;-73
2023/07/08 10:19:47;;;;;;;9.40;6.80;;;;;;;25.32;41.87;96585.44;4996735;28;20462;-75
2023/07/08 10:22:48;;;;;;;10.90;6.93;;;;;;;25.47;41.60;96566.97;5008706;28;20207;-74
2023/07/08 10:25:23;;;;;;;11.30;5.93;;;;;;;26.12;39.22;96562.00;4985836;28;20936;-74
2023/07/08 10:28:01;;;;;;;11.93;4.63;;;;;;;26.13;38.46;96562.88;5024822;28;20453;-73
2023/07/08 10:30:34;;;;;;;6.67;4.53;;;;;;;26.38;35.48;96551.19;5021146;28;20576;-74
2023/07/08 10:33:14;;;;;;;8.13;5.13;;;;;;;26.44;36.13;96560.50;5027745;28;20421;-75
2023/07/08 10:35:49;;;;;;;14.83;6.03;;;;;;;26.23;37.67;96557.38;5026967;28;20429;-76
2023/07/08 10:38:48;;;;;;;7.33;4.77;;;;;;;26.58;35.13;96567.97;5027207;28;20761;-76
2023/07/08 10:41:32;;;;;;;6.60;4.70;;;;;;;26.53;35.68;96556.00;4979334;28;1210356;-76
2023/07/08 10:44:13;;;;;;;9.27;5.60;;;;;;;26.53;36.05;96558.69;5026383;28;20972;-71
2023/07/08 10:46:49;;;;;;;10.63;5.20;;;;;;;26.70;34.74;96560.44;5026852;28;20545;-70
2023/07/08 10:49:32;;;;;;;13.50;5.30;;;;;;;26.75;35.79;96558.09;5023726;28;20453;-71
2023/07/08 10:52:13;;;;;;;9.83;4.57;;;;;;;26.32;35.52;96561.78;5027758;28;20444;-72
2023/07/08 10:54:46;;;;;;;8.70;4.37;;;;;;;25.86;37.65;96559.34;5028087;28;20422;-72
2023/07/08 10:57:36;;;;;;;9.47;4.37;;;;;;;25.63;38.13;96555.47;5027627;28;20424;-73
2023/07/08 11:00:28;;;;;;;9.33;4.33;;;;;;;25.97;36.79;96551.00;5027655;28;20547;-71
2023/07/08 11:03:24;;;;;;;10.63;5.10;;;;;;;25.91;37.85;96548.94;5019888;28;20829;-71
2023/07/08 11:06:01;;;;;;;21.40;6.10;;;;;;;26.35;36.75;96542.63;5027656;28;20429;-72
2023/07/08 11:08:31;;;;;;;9.33;4.57;;;;;;;26.44;36.68;96543.50;5027260;28;20493;-72
2023/07/08 11:11:14;;;;;;;9.43;4.70;;;;;;;26.24;37.42;96541.06;5027020;28;20433;-71
2023/07/08 11:13:47;;;;;;;11.83;5.37;;;;;;;26.46;36.37;96544.16;5019892;28;20424;-70
2023/07/08 11:16:25;;;;;;;18.27;5.60;;;;;;;26.50;36.50;96537.44;5026613;28;20472;-72
2023/07/08 11:19:00;;;;;;;6.33;4.30;;;;;;;26.70;35.67;96530.81;5024559;28;20572;-71
2023/07/08 11:21:48;;;;;;;5.33;4.83;;;;;;;26.71;36.38;96523.59;5022032;28;20464;-71
2023/07/08 11:24:32;;;;;;;8.13;4.70;;;;;;;26.87;36.03;96515.53;5025719;28;20805;-72
2023/07/08 11:27:03;;;;;;;9.40;5.07;;;;;;;27.08;35.67;96522.31;5020143;28;20433;-71
2023/07/08 11:29:44;;;;;;;14.03;5.73;;;;;;;27.21;35.57;96514.56;5026521;28;20484;-73
2023/07/08 11:32:16;;;;;;;17.30;5.00;;;;;;;27.27;35.08;96513.06;5027432;28;20437;-70
2023/07/08 11:34:44;;;;;;;10.83;5.87;;;;;;;27.29;35.38;96516.44;5027171;28;21248;-73